createdAt,value
2019-03-17T00:01:19.388Z,9.60
2019-03-17T00:03:46.839Z,9.40
2019-03-17T00:06:14.280Z,9.40
2019-03-17T00:08:41.716Z,9.40
2019-03-17T00:11:09.508Z,9.30
2019-03-17T00:13:36.826Z,9.30
2019-03-17T00:16:04.189Z,9.30
2019-03-17T00:18:31.570Z,9.20
2019-03-17T00:20:58.967Z,9.20
2019-03-17T00:23:26.421Z,9.20
2019-03-17T00:25:53.739Z,9.30
2019-03-17T00:28:21.516Z,9.40
2019-03-17T00:30:48.846Z,9.60
2019-03-17T00:33:16.541Z,9.60
2019-03-17T00:35:43.944Z,9.40
2019-03-17T00:38:11.708Z,9.30
2019-03-17T00:40:39.125Z,9.50
2019-03-17T00:43:06.880Z,9.40
2019-03-17T00:45:34.237Z,9.30
2019-03-17T00:48:01.684Z,9.20
2019-03-17T00:50:29.397Z,9.30
2019-03-17T00:52:56.748Z,9.40
2019-03-17T00:55:24.167Z,9.20
2019-03-17T00:57:51.807Z,9.30
2019-03-17T01:00:19.152Z,9.30
2019-03-17T01:02:46.470Z,9.20
2019-03-17T01:05:14.025Z,9.20
2019-03-17T01:07:41.381Z,9.10
2019-03-17T01:10:08.801Z,9.20
2019-03-17T01:12:36.202Z,9.10
2019-03-17T01:15:03.879Z,9.10
2019-03-17T01:17:31.293Z,9.10
2019-03-17T01:19:58.704Z,9.20
2019-03-17T01:22:26.084Z,9.00
2019-03-17T01:24:53.515Z,8.90
2019-03-17T01:27:20.950Z,8.90
2019-03-17T01:29:48.946Z,8.80
2019-03-17T01:32:16.248Z,8.60
2019-03-17T01:34:43.654Z,8.60
2019-03-17T01:37:11.101Z,8.50
2019-03-17T01:39:38.773Z,8.50
2019-03-17T01:42:06.166Z,8.60
2019-03-17T01:44:33.480Z,8.80
2019-03-17T01:47:01.177Z,8.60
2019-03-17T01:49:28.579Z,8.50
2019-03-17T01:51:56.023Z,8.50
2019-03-17T01:54:23.444Z,8.40
2019-03-17T01:56:50.843Z,8.50
2019-03-17T01:59:18.238Z,8.50
2019-03-17T02:01:45.655Z,8.60
2019-03-17T02:04:13.082Z,8.50
2019-03-17T02:06:40.378Z,8.40
2019-03-17T02:09:08.058Z,8.60
2019-03-17T02:11:35.378Z,8.50
2019-03-17T02:14:02.706Z,8.40
2019-03-17T02:16:30.134Z,8.50
2019-03-17T02:18:57.890Z,8.50
2019-03-17T02:21:25.262Z,8.50
2019-03-17T02:23:52.541Z,8.60
2019-03-17T02:26:19.850Z,8.30
2019-03-17T02:28:47.642Z,8.40
2019-03-17T02:31:14.927Z,8.60
2019-03-17T02:33:42.264Z,8.40
2019-03-17T02:36:09.577Z,8.20
2019-03-17T02:38:36.954Z,8.20
2019-03-17T02:41:04.714Z,8.00
2019-03-17T02:43:32.011Z,7.80
2019-03-17T02:46:02.829Z,8.10
2019-03-17T02:48:28.445Z,7.80
2019-03-17T02:50:55.909Z,7.90
2019-03-17T02:53:23.326Z,8.10
2019-03-17T02:55:50.687Z,8.20
2019-03-17T02:58:18.376Z,8.10
2019-03-17T03:00:45.680Z,7.90
2019-03-17T03:03:13.075Z,8.00
2019-03-17T03:05:53.861Z,7.80
2019-03-17T03:08:09.745Z,7.80
2019-03-17T03:10:37.440Z,7.90
2019-03-17T03:13:04.891Z,8.00
2019-03-17T03:15:32.262Z,7.70
2019-03-17T03:17:59.764Z,7.60
2019-03-17T03:20:27.165Z,7.50
2019-03-17T03:22:54.547Z,7.70
2019-03-17T03:25:22.290Z,7.60
2019-03-17T03:27:49.691Z,7.40
2019-03-17T03:30:17.057Z,7.30
2019-03-17T03:32:44.482Z,7.40
2019-03-17T03:35:12.085Z,7.40
2019-03-17T03:37:39.792Z,7.60
2019-03-17T03:40:07.499Z,7.40
2019-03-17T03:42:34.819Z,7.40
2019-03-17T03:45:02.207Z,7.50
2019-03-17T03:47:29.575Z,7.50
2019-03-17T03:49:57.352Z,7.30
2019-03-17T03:52:24.806Z,7.30
2019-03-17T03:54:52.289Z,7.40
2019-03-17T03:57:19.660Z,7.30
2019-03-17T03:59:46.971Z,7.30
2019-03-17T04:02:14.368Z,7.40
2019-03-17T04:04:41.670Z,7.50
2019-03-17T04:07:09.062Z,7.60
2019-03-17T04:09:36.487Z,7.60
2019-03-17T04:12:04.161Z,7.50
2019-03-17T04:14:31.592Z,7.50
2019-03-17T04:16:59.017Z,7.70
2019-03-17T04:19:26.414Z,7.70
2019-03-17T04:21:53.787Z,7.50
2019-03-17T04:24:21.191Z,7.60
2019-03-17T04:26:48.572Z,7.70
2019-03-17T04:29:15.888Z,7.70
2019-03-17T04:31:43.208Z,7.40
2019-03-17T04:34:10.611Z,7.40
2019-03-17T04:36:40.613Z,7.50
2019-03-17T04:39:07.277Z,7.50
2019-03-17T04:41:34.980Z,7.50
2019-03-17T04:44:02.376Z,7.40
2019-03-17T04:46:29.700Z,7.30
2019-03-17T04:48:57.147Z,7.30
2019-03-17T04:51:24.606Z,7.40
2019-03-17T04:53:51.931Z,7.40
2019-03-17T04:56:19.328Z,7.30
2019-03-17T04:58:46.717Z,7.20
2019-03-17T05:01:14.038Z,7.30
2019-03-17T05:03:41.414Z,7.40
2019-03-17T05:06:08.723Z,7.30
2019-03-17T05:08:36.028Z,7.50
2019-03-17T05:11:03.373Z,7.40
2019-03-17T05:13:30.799Z,7.40
2019-03-17T05:15:58.147Z,7.50
2019-03-17T05:18:25.522Z,7.50
2019-03-17T05:20:53.273Z,7.40
2019-03-17T05:23:20.587Z,7.50
2019-03-17T05:25:47.991Z,7.30
2019-03-17T05:28:15.385Z,7.10
2019-03-17T05:30:42.691Z,7.10
2019-03-17T05:33:10.105Z,7.10
2019-03-17T05:35:37.517Z,7.10
2019-03-17T05:38:04.908Z,6.70
2019-03-17T05:40:32.322Z,6.80
2019-03-17T05:42:59.641Z,6.90
2019-03-17T05:45:27.018Z,6.70
2019-03-17T05:47:54.418Z,6.90
2019-03-17T05:50:21.816Z,7.00
2019-03-17T05:52:49.100Z,7.00
2019-03-17T05:55:16.381Z,7.10
2019-03-17T05:57:43.778Z,7.00
2019-03-17T06:00:11.748Z,7.10
2019-03-17T06:02:39.155Z,7.00
2019-03-17T06:05:07.317Z,7.10
2019-03-17T06:07:34.620Z,7.10
2019-03-17T06:10:01.949Z,6.90
2019-03-17T06:12:29.369Z,7.00
2019-03-17T06:14:56.758Z,6.80
2019-03-17T06:17:24.150Z,6.80
2019-03-17T06:19:51.775Z,6.80
2019-03-17T06:22:19.233Z,6.60
2019-03-17T06:24:46.604Z,6.60
2019-03-17T06:27:13.901Z,6.70
2019-03-17T06:29:41.300Z,6.80
2019-03-17T06:32:08.602Z,7.10
2019-03-17T06:34:36.025Z,7.20
2019-03-17T06:37:03.404Z,7.50
2019-03-17T06:39:30.796Z,7.90
2019-03-17T06:41:58.069Z,7.70
2019-03-17T06:44:25.743Z,7.60
2019-03-17T06:46:53.113Z,7.50
2019-03-17T06:49:20.408Z,7.40
2019-03-17T06:51:47.701Z,7.30
2019-03-17T06:54:15.062Z,7.40
2019-03-17T06:56:42.813Z,7.40
2019-03-17T06:59:10.127Z,7.30
2019-03-17T07:01:37.446Z,7.70
2019-03-17T07:04:04.943Z,7.90
2019-03-17T07:06:32.315Z,8.10
2019-03-17T07:08:59.626Z,8.20
2019-03-17T07:11:27.058Z,8.10
2019-03-17T07:13:54.461Z,8.20
2019-03-17T07:16:21.858Z,8.30
2019-03-17T07:18:50.371Z,8.50
2019-03-17T07:21:18.113Z,8.60
2019-03-17T07:23:45.516Z,8.60
2019-03-17T07:26:12.849Z,8.60
2019-03-17T07:28:40.523Z,8.60
2019-03-17T07:31:07.999Z,8.70
2019-03-17T07:33:35.383Z,8.70
2019-03-17T07:36:02.811Z,8.70
2019-03-17T07:38:30.218Z,9.00
2019-03-17T07:40:57.627Z,9.20
2019-03-17T07:43:24.976Z,9.50
2019-03-17T07:45:52.375Z,9.80
2019-03-17T07:48:19.862Z,9.80
2019-03-17T07:50:47.272Z,9.60
2019-03-17T07:53:14.596Z,9.70
2019-03-17T07:55:41.995Z,9.60
2019-03-17T07:58:09.477Z,9.70
2019-03-17T08:00:36.957Z,9.80
2019-03-17T08:03:04.347Z,9.90
2019-03-17T08:05:31.689Z,10.10
2019-03-17T08:08:08.788Z,10.30
2019-03-17T08:10:28.309Z,10.50
2019-03-17T08:12:55.731Z,10.60
2019-03-17T08:15:23.117Z,10.80
2019-03-17T08:17:50.598Z,10.90
2019-03-17T08:20:18.008Z,11.00
2019-03-17T08:22:45.442Z,11.00
2019-03-17T08:25:12.906Z,11.00
2019-03-17T08:27:40.355Z,11.10
2019-03-17T08:30:08.712Z,11.00
2019-03-17T08:32:36.088Z,11.20
2019-03-17T08:35:03.806Z,11.20
2019-03-17T08:37:31.208Z,11.30
2019-03-17T08:39:58.621Z,11.40
2019-03-17T08:42:25.989Z,11.30
2019-03-17T08:44:53.419Z,11.50
2019-03-17T08:47:22.483Z,11.90
2019-03-17T08:49:50.111Z,11.90
2019-03-17T08:52:17.538Z,11.80
2019-03-17T08:54:44.845Z,11.80
2019-03-17T08:57:12.663Z,11.70
2019-03-17T08:59:40.088Z,11.70
2019-03-17T09:02:07.529Z,12.00
2019-03-17T09:04:34.934Z,12.10
2019-03-17T09:07:02.221Z,12.20
2019-03-17T09:09:29.590Z,12.40
2019-03-17T09:11:57.014Z,12.60
2019-03-17T09:14:24.423Z,12.60
2019-03-17T09:16:51.856Z,12.50
2019-03-17T09:19:19.190Z,12.50
2019-03-17T09:21:46.646Z,12.50
2019-03-17T09:24:17.377Z,12.80
2019-03-17T09:26:43.336Z,12.90
2019-03-17T09:29:10.733Z,13.10
2019-03-17T09:31:38.406Z,13.50
2019-03-17T09:34:05.850Z,13.60
2019-03-17T09:36:33.266Z,13.80
2019-03-17T09:39:00.726Z,13.70
2019-03-17T09:41:28.140Z,13.80
2019-03-17T09:43:55.490Z,14.00
2019-03-17T09:46:22.799Z,14.20
2019-03-17T09:48:50.138Z,14.30
2019-03-17T09:51:17.666Z,14.50
2019-03-17T09:53:45.132Z,14.70
2019-03-17T09:56:12.501Z,14.80
2019-03-17T09:58:39.967Z,15.10
2019-03-17T10:01:07.360Z,15.10
2019-03-17T10:03:34.773Z,15.80
2019-03-17T10:06:02.572Z,16.90
2019-03-17T10:08:29.992Z,17.40
2019-03-17T10:10:57.490Z,18.00
2019-03-17T10:13:25.314Z,18.60
2019-03-17T10:15:52.782Z,18.70
2019-03-17T10:18:20.232Z,18.50
2019-03-17T10:20:47.739Z,18.20
2019-03-17T10:23:15.220Z,18.00
2019-03-17T10:25:42.640Z,18.10
2019-03-17T10:28:10.125Z,18.00
2019-03-17T10:30:37.592Z,17.40
2019-03-17T10:33:05.350Z,17.20
2019-03-17T10:35:33.453Z,16.90
2019-03-17T10:38:00.892Z,16.60
2019-03-17T10:40:28.368Z,16.20
2019-03-17T10:42:55.807Z,16.10
2019-03-17T10:45:23.296Z,16.10
2019-03-17T10:47:50.749Z,16.40
2019-03-17T10:50:18.226Z,16.80
2019-03-17T10:52:46.052Z,16.80
2019-03-17T10:55:13.937Z,17.00
2019-03-17T10:57:41.401Z,17.00
2019-03-17T11:00:11.118Z,17.20
2019-03-17T11:02:38.600Z,17.30
2019-03-17T11:05:06.108Z,17.00
2019-03-17T11:07:33.552Z,16.90
2019-03-17T11:10:01.095Z,16.70
2019-03-17T11:12:28.649Z,16.70
2019-03-17T11:14:56.085Z,16.70
2019-03-17T11:17:23.519Z,16.40
2019-03-17T11:19:50.867Z,16.70
2019-03-17T11:22:18.722Z,16.60
2019-03-17T11:24:46.265Z,16.80
2019-03-17T11:27:13.815Z,16.80
2019-03-17T11:29:41.306Z,16.40
2019-03-17T11:32:08.802Z,16.30
2019-03-17T11:34:36.370Z,16.50
2019-03-17T11:37:03.829Z,16.40
2019-03-17T11:39:37.808Z,16.60
2019-03-17T11:42:00.598Z,17.20
2019-03-17T11:44:28.047Z,17.40
2019-03-17T11:46:55.583Z,17.70
2019-03-17T11:49:23.051Z,18.80
2019-03-17T11:51:50.559Z,19.40
2019-03-17T11:54:18.042Z,19.00
2019-03-17T11:56:46.666Z,18.60
2019-03-17T11:59:14.169Z,18.70
2019-03-17T12:01:41.629Z,18.60
2019-03-17T12:04:09.069Z,18.30
2019-03-17T12:06:36.541Z,18.00
2019-03-17T12:09:06.073Z,17.80
2019-03-17T12:11:33.557Z,18.20
2019-03-17T12:14:00.995Z,18.40
2019-03-17T12:16:28.462Z,18.20
2019-03-17T12:18:55.968Z,18.10
2019-03-17T12:21:23.421Z,18.00
2019-03-17T12:23:51.005Z,18.10
2019-03-17T12:26:18.432Z,18.10
2019-03-17T12:28:45.900Z,18.00
2019-03-17T12:31:13.525Z,17.80
2019-03-17T12:33:41.360Z,17.50
2019-03-17T12:36:08.832Z,17.40
2019-03-17T12:38:36.202Z,17.20
2019-03-17T12:41:03.684Z,17.70
2019-03-17T12:43:31.227Z,17.70
2019-03-17T12:45:58.674Z,17.20
2019-03-17T12:48:26.156Z,17.00
2019-03-17T12:50:53.622Z,17.00
2019-03-17T12:53:21.615Z,17.40
2019-03-17T12:55:49.088Z,17.40
2019-03-17T12:58:16.560Z,17.90
2019-03-17T13:00:44.015Z,18.40
2019-03-17T13:03:11.508Z,19.10
2019-03-17T13:05:38.982Z,19.20
2019-03-17T13:08:06.383Z,18.80
2019-03-17T13:10:34.817Z,18.60
2019-03-17T13:13:02.273Z,18.40
2019-03-17T13:15:29.809Z,18.60
2019-03-17T13:17:57.308Z,19.10
2019-03-17T13:20:24.907Z,19.00
2019-03-17T13:22:52.620Z,19.00
2019-03-17T13:25:20.148Z,18.60
2019-03-17T13:27:47.582Z,18.40
2019-03-17T13:30:15.141Z,18.20
2019-03-17T13:32:42.877Z,17.70
2019-03-17T13:35:10.359Z,17.50
2019-03-17T13:37:37.879Z,17.30
2019-03-17T13:40:06.569Z,17.10
2019-03-17T13:42:34.091Z,17.20
2019-03-17T13:45:01.640Z,17.20
2019-03-17T13:47:29.643Z,17.10
2019-03-17T13:49:57.033Z,17.20
2019-03-17T13:52:24.608Z,17.30
2019-03-17T13:54:52.244Z,17.40
2019-03-17T13:57:20.495Z,17.30
2019-03-17T13:59:48.012Z,17.40
2019-03-17T14:02:15.577Z,17.30
2019-03-17T14:04:43.215Z,17.30
2019-03-17T14:07:10.790Z,17.40
2019-03-17T14:09:38.336Z,17.40
2019-03-17T14:12:05.877Z,17.40
2019-03-17T14:14:33.401Z,17.50
2019-03-17T14:17:01.287Z,17.40
2019-03-17T14:19:28.777Z,17.40
2019-03-17T14:21:56.332Z,17.30
2019-03-17T14:24:23.859Z,17.20
2019-03-17T14:26:51.389Z,17.00
2019-03-17T14:29:18.953Z,16.90
2019-03-17T14:31:46.460Z,16.70
2019-03-17T14:34:15.325Z,16.60
2019-03-17T14:36:43.328Z,16.60
2019-03-17T14:39:10.833Z,16.50
2019-03-17T14:41:38.697Z,16.40
2019-03-17T14:44:06.262Z,16.50
2019-03-17T14:46:35.707Z,16.40
2019-03-17T14:49:03.085Z,16.30
2019-03-17T14:51:30.673Z,16.30
2019-03-17T14:53:58.188Z,16.40
2019-03-17T14:56:26.143Z,16.40
2019-03-17T14:58:53.610Z,16.30
2019-03-17T15:01:21.438Z,16.10
2019-03-17T15:03:48.916Z,16.10
2019-03-17T15:06:16.379Z,16.00
2019-03-17T15:08:43.930Z,15.90
2019-03-17T15:11:11.420Z,15.40
2019-03-17T15:13:40.121Z,14.90
2019-03-17T15:16:07.634Z,14.50
2019-03-17T15:18:35.598Z,14.00
2019-03-17T15:21:03.105Z,13.20
2019-03-17T15:23:30.703Z,12.70
2019-03-17T15:25:58.689Z,12.50
2019-03-17T15:28:26.266Z,12.20
2019-03-17T15:31:09.859Z,12.10
2019-03-17T15:33:23.644Z,12.10
2019-03-17T15:35:53.309Z,11.70
2019-03-17T15:38:20.876Z,11.20
2019-03-17T15:40:48.824Z,11.20
2019-03-17T15:43:16.408Z,11.10
2019-03-17T15:45:44.010Z,10.90
2019-03-17T15:48:11.571Z,10.70
2019-03-17T15:50:39.098Z,10.60
2019-03-17T15:53:06.628Z,10.60
2019-03-17T15:55:34.143Z,10.40
2019-03-17T15:58:02.081Z,10.30
2019-03-17T16:00:29.648Z,10.10
2019-03-17T16:02:57.327Z,10.10
2019-03-17T16:05:25.077Z,10.00
2019-03-17T16:07:52.679Z,10.10
2019-03-17T16:10:20.512Z,10.20
2019-03-17T16:12:48.262Z,9.90
2019-03-17T16:15:15.914Z,9.90
2019-03-17T16:17:43.783Z,9.70
2019-03-17T16:20:13.418Z,9.70
2019-03-17T16:22:40.940Z,9.60
2019-03-17T16:25:08.775Z,9.80
2019-03-17T16:27:36.667Z,9.60
2019-03-17T16:30:05.174Z,9.50
2019-03-17T16:32:33.086Z,9.40
2019-03-17T16:35:00.727Z,9.30
2019-03-17T16:37:33.086Z,9.30
2019-03-17T16:40:07.883Z,9.40
2019-03-17T16:42:35.364Z,9.30
2019-03-17T16:45:03.343Z,9.20
2019-03-17T16:47:30.901Z,9.00
2019-03-17T16:49:59.092Z,9.00
2019-03-17T16:52:26.876Z,9.00
2019-03-17T16:54:54.400Z,8.90
2019-03-17T16:57:21.953Z,8.90
2019-03-17T16:59:49.874Z,8.90
2019-03-17T17:02:17.394Z,8.70
2019-03-17T17:04:45.159Z,8.60
2019-03-17T17:07:13.162Z,8.70
2019-03-17T17:09:40.627Z,8.40
2019-03-17T17:12:08.240Z,8.60
2019-03-17T17:14:35.822Z,8.70
2019-03-17T17:17:03.769Z,8.70
2019-03-17T17:19:31.430Z,8.60
2019-03-17T17:21:59.111Z,8.70
2019-03-17T17:24:26.930Z,8.50
2019-03-17T17:26:54.392Z,8.70
2019-03-17T17:29:22.082Z,8.70
2019-03-17T17:31:49.726Z,8.80
2019-03-17T17:34:18.046Z,8.60
2019-03-17T17:36:45.582Z,8.60
2019-03-17T17:39:13.150Z,8.60
2019-03-17T17:41:40.764Z,8.60
2019-03-17T17:44:08.358Z,8.80
2019-03-17T17:46:36.001Z,8.80
2019-03-17T17:49:03.518Z,8.80
2019-03-17T17:51:31.332Z,8.70
2019-03-17T17:53:59.077Z,8.80
2019-03-17T17:56:26.998Z,8.90
2019-03-17T17:58:54.516Z,8.80
2019-03-17T18:01:22.975Z,8.90
2019-03-17T18:03:52.008Z,8.90
2019-03-17T18:06:20.150Z,8.90
2019-03-17T18:08:48.582Z,8.80
2019-03-17T18:11:16.960Z,8.60
2019-03-17T18:13:45.223Z,8.60
2019-03-17T18:16:13.138Z,8.70
2019-03-17T18:18:41.496Z,8.60
2019-03-17T18:21:10.390Z,8.50
2019-03-17T18:23:37.985Z,8.40
2019-03-17T18:26:05.541Z,8.30
2019-03-17T18:28:36.027Z,8.40
2019-03-17T18:31:03.624Z,8.20
2019-03-17T18:33:31.574Z,8.10
2019-03-17T18:35:59.720Z,8.20
2019-03-17T18:38:27.271Z,8.10
2019-03-17T18:40:54.785Z,8.30
2019-03-17T18:43:22.373Z,8.00
2019-03-17T18:45:49.942Z,8.00
2019-03-17T18:48:17.446Z,8.10
2019-03-17T18:50:45.352Z,8.10
2019-03-17T18:53:12.832Z,8.10
2019-03-17T18:55:40.384Z,8.00
2019-03-17T18:58:07.922Z,8.00
2019-03-17T19:00:36.043Z,7.80
2019-03-17T19:03:03.537Z,7.80
2019-03-17T19:05:31.357Z,7.70
2019-03-17T19:07:58.785Z,7.80
2019-03-17T19:10:26.310Z,7.80
2019-03-17T19:12:53.920Z,7.80
2019-03-17T19:15:21.399Z,7.70
2019-03-17T19:17:49.535Z,7.80
2019-03-17T19:20:17.113Z,7.80
2019-03-17T19:22:45.053Z,7.50
2019-03-17T19:25:13.528Z,7.30
2019-03-17T19:27:41.488Z,7.40
2019-03-17T19:30:10.489Z,7.40
2019-03-17T19:32:38.179Z,7.60
2019-03-17T19:35:05.809Z,7.50
2019-03-17T19:37:34.439Z,7.50
2019-03-17T19:40:02.020Z,7.60
2019-03-17T19:42:29.964Z,7.60
2019-03-17T19:44:57.482Z,7.60
2019-03-17T19:47:25.072Z,7.60
2019-03-17T19:49:52.733Z,7.60
2019-03-17T19:52:20.274Z,7.30
2019-03-17T19:54:48.292Z,7.40
2019-03-17T19:57:15.903Z,7.40
2019-03-17T19:59:43.540Z,7.30
2019-03-17T20:02:11.203Z,7.40
2019-03-17T20:04:38.753Z,7.50
2019-03-17T20:07:06.296Z,7.30
2019-03-17T20:09:33.758Z,7.20
2019-03-17T20:12:01.409Z,7.30
2019-03-17T20:14:28.944Z,7.20
2019-03-17T20:16:56.490Z,7.20
2019-03-17T20:19:24.416Z,7.20
2019-03-17T20:21:51.927Z,7.20
2019-03-17T20:24:19.433Z,7.10
2019-03-17T20:26:47.387Z,7.10
2019-03-17T20:29:15.013Z,7.20
2019-03-17T20:31:42.917Z,7.20
2019-03-17T20:34:10.465Z,7.20
2019-03-17T20:36:38.066Z,7.40
2019-03-17T20:39:06.472Z,7.20
2019-03-17T20:41:34.424Z,7.10
2019-03-17T20:44:01.964Z,7.00
2019-03-17T20:46:29.524Z,6.80
2019-03-17T20:48:57.053Z,6.80
2019-03-17T20:51:25.044Z,6.90
2019-03-17T20:53:52.624Z,6.80
2019-03-17T20:56:20.708Z,6.80
2019-03-17T20:58:48.276Z,6.70
2019-03-17T21:01:15.721Z,6.60
2019-03-17T21:03:43.226Z,6.70
2019-03-17T21:06:10.757Z,6.90
2019-03-17T21:08:38.254Z,6.90
2019-03-17T21:11:05.681Z,6.80
2019-03-17T21:13:45.905Z,6.70
2019-03-17T21:16:03.395Z,6.60
2019-03-17T21:18:31.202Z,6.60
2019-03-17T21:20:58.661Z,6.80
2019-03-17T21:23:26.653Z,6.80
2019-03-17T21:25:54.137Z,6.80
2019-03-17T21:28:21.695Z,6.70
2019-03-17T21:30:49.176Z,6.80
2019-03-17T21:33:17.203Z,6.70
2019-03-17T21:35:44.649Z,6.50
2019-03-17T21:38:12.323Z,6.50
2019-03-17T21:40:56.184Z,6.40
2019-03-17T21:43:09.487Z,6.40
2019-03-17T21:45:36.922Z,6.50
2019-03-17T21:48:04.368Z,6.60
2019-03-17T21:50:31.840Z,6.30
2019-03-17T21:52:59.320Z,6.20
2019-03-17T21:55:26.774Z,6.20
2019-03-17T21:57:55.160Z,6.20
2019-03-17T22:00:22.668Z,6.20
2019-03-17T22:02:50.241Z,6.30
2019-03-17T22:05:17.693Z,6.40
2019-03-17T22:07:50.231Z,6.40
2019-03-17T22:10:14.647Z,6.20
2019-03-17T22:12:42.124Z,6.20
2019-03-17T22:15:09.744Z,6.20
2019-03-17T22:17:37.226Z,6.40
2019-03-17T22:20:04.863Z,6.10
2019-03-17T22:22:32.688Z,6.20
2019-03-17T22:25:00.369Z,6.10
2019-03-17T22:27:27.807Z,6.00
2019-03-17T22:29:55.300Z,6.10
2019-03-17T22:32:23.135Z,6.20
2019-03-17T22:34:50.531Z,6.20
2019-03-17T22:37:17.869Z,6.00
2019-03-17T22:39:45.351Z,6.10
2019-03-17T22:42:12.793Z,6.20
2019-03-17T22:44:40.682Z,6.10
2019-03-17T22:47:08.121Z,6.10
2019-03-17T22:49:35.556Z,6.20
2019-03-17T22:52:02.965Z,6.20
2019-03-17T22:54:30.438Z,6.10
2019-03-17T22:56:57.782Z,6.20
2019-03-17T22:59:25.222Z,6.10
2019-03-17T23:01:52.671Z,6.10
2019-03-17T23:04:22.085Z,5.90
2019-03-17T23:06:49.358Z,5.90
2019-03-17T23:09:16.758Z,5.90
2019-03-17T23:11:44.197Z,5.90
2019-03-17T23:14:11.995Z,6.00
2019-03-17T23:16:39.387Z,6.10
2019-03-17T23:19:06.755Z,6.20
2019-03-17T23:21:34.230Z,6.10
2019-03-17T23:24:01.661Z,6.10
2019-03-17T23:26:29.501Z,6.00
2019-03-17T23:28:56.976Z,6.00
2019-03-17T23:31:25.079Z,6.00
2019-03-17T23:33:52.539Z,6.00
2019-03-17T23:36:19.995Z,5.90
2019-03-17T23:38:47.310Z,5.80
2019-03-17T23:41:15.085Z,5.50
2019-03-17T23:43:42.469Z,5.60
2019-03-17T23:46:09.915Z,5.50
2019-03-17T23:48:37.320Z,5.40
2019-03-17T23:51:04.749Z,5.40
2019-03-17T23:53:32.150Z,5.50
2019-03-17T23:55:59.463Z,5.80
2019-03-17T23:58:26.885Z,6.00
